sensor_id;sensor_type;location;lat;lon;timestamp;temperature;humidity
8220;DHT22;4151;51.110;7.020;2023-05-27T03:36:43;8.20;99.90
8220;DHT22;4151;51.110;7.020;2023-05-27T03:39:11;8.00;99.90
8220;DHT22;4151;51.110;7.020;2023-05-27T03:41:37;8.00;99.90
8220;DHT22;4151;51.110;7.020;2023-05-27T03:44:02;7.90;99.90
8220;DHT22;4151;51.110;7.020;2023-05-27T03:46:28;8.00;99.90
8220;DHT22;4151;51.110;7.020;2023-05-27T03:48:53;8.00;99.90
8220;DHT22;4151;51.110;7.020;2023-05-27T03:51:20;8.10;99.90
8220;DHT22;4151;51.110;7.020;2023-05-27T03:53:46;8.00;99.90
8220;DHT22;4151;51.110;7.020;2023-05-27T03:56:11;8.00;99.90
8220;DHT22;4151;51.110;7.020;2023-05-27T03:58:37;8.00;99.90
8220;DHT22;4151;51.110;7.020;2023-05-27T04:01:02;8.10;99.90
8220;DHT22;4151;51.110;7.020;2023-05-27T04:03:28;8.10;99.90
8220;DHT22;4151;51.110;7.020;2023-05-27T04:05:54;8.20;99.90
8220;DHT22;4151;51.110;7.020;2023-05-27T04:08:22;8.20;99.90
8220;DHT22;4151;51.110;7.020;2023-05-27T04:10:48;8.20;99.90
8220;DHT22;4151;51.110;7.020;2023-05-27T04:13:13;8.20;99.90
8220;DHT22;4151;51.110;7.020;2023-05-27T04:15:39;8.20;99.90
8220;DHT22;4151;51.110;7.020;2023-05-27T04:18:04;8.30;99.90
8220;DHT22;4151;51.110;7.020;2023-05-27T04:20:40;8.30;99.90
8220;DHT22;4151;51.110;7.020;2023-05-27T04:23:08;8.30;99.90
8220;DHT22;4151;51.110;7.020;2023-05-27T04:25:34;8.30;99.90
8220;DHT22;4151;51.110;7.020;2023-05-27T04:28:03;8.30;99.90
8220;DHT22;4151;51.110;7.020;2023-05-27T04:30:32;8.40;99.90
8220;DHT22;4151;51.110;7.020;2023-05-27T04:32:59;8.50;99.90
8220;DHT22;4151;51.110;7.020;2023-05-27T04:35:25;8.50;99.90
8220;DHT22;4151;51.110;7.020;2023-05-27T04:37:51;8.50;99.90
8220;DHT22;4151;51.110;7.020;2023-05-27T04:40:17;8.50;99.90
8220;DHT22;4151;51.110;7.020;2023-05-27T04:42:42;8.50;99.90
8220;DHT22;4151;51.110;7.020;2023-05-27T04:45:10;8.60;99.90
8220;DHT22;4151;51.110;7.020;2023-05-27T04:55:38;8.80;99.90
8220;DHT22;4151;51.110;7.020;2023-05-27T04:58:04;8.90;99.90
8220;DHT22;4151;51.110;7.020;2023-05-27T05:00:30;9.00;99.90
8220;DHT22;4151;51.110;7.020;2023-05-27T05:03:21;9.00;99.90
8220;DHT22;4151;51.110;7.020;2023-05-27T05:05:50;9.10;99.90
8220;DHT22;4151;51.110;7.020;2023-05-27T05:08:20;9.10;99.90
8220;DHT22;4151;51.110;7.020;2023-05-27T05:10:46;9.20;99.90
8220;DHT22;4151;51.110;7.020;2023-05-27T05:13:12;9.30;99.90
8220;DHT22;4151;51.110;7.020;2023-05-27T05:15:39;9.40;99.90
8220;DHT22;4151;51.110;7.020;2023-05-27T05:18:05;9.50;99.90
8220;DHT22;4151;51.110;7.020;2023-05-27T05:20:31;9.60;99.90
8220;DHT22;4151;51.110;7.020;2023-05-27T05:22:57;9.70;99.90
8220;DHT22;4151;51.110;7.020;2023-05-27T05:25:23;9.80;99.90
8220;DHT22;4151;51.110;7.020;2023-05-27T05:27:48;9.90;99.90
8220;DHT22;4151;51.110;7.020;2023-05-27T05:30:14;10.00;99.90
8220;DHT22;4151;51.110;7.020;2023-05-27T05:32:40;10.10;99.90
8220;DHT22;4151;51.110;7.020;2023-05-27T05:35:06;10.20;99.90
8220;DHT22;4151;51.110;7.020;2023-05-27T05:37:31;10.30;99.90
8220;DHT22;4151;51.110;7.020;2023-05-27T05:42:36;10.50;99.90
8220;DHT22;4151;51.110;7.020;2023-05-27T05:45:03;10.60;99.90
8220;DHT22;4151;51.110;7.020;2023-05-27T05:47:29;10.70;99.90
8220;DHT22;4151;51.110;7.020;2023-05-27T05:49:54;10.80;99.90
8220;DHT22;4151;51.110;7.020;2023-05-27T05:52:20;10.90;99.90
8220;DHT22;4151;51.110;7.020;2023-05-27T05:54:45;11.00;99.90
8220;DHT22;4151;51.110;7.020;2023-05-27T05:57:11;11.10;99.90
8220;DHT22;4151;51.110;7.020;2023-05-27T05:59:36;11.10;99.90
8220;DHT22;4151;51.110;7.020;2023-05-27T06:02:02;11.30;99.90
8220;DHT22;4151;51.110;7.020;2023-05-27T06:04:27;11.40;99.90
8220;DHT22;4151;51.110;7.020;2023-05-27T06:06:53;11.50;99.90
8220;DHT22;4151;51.110;7.020;2023-05-27T06:09:19;11.60;99.90
8220;DHT22;4151;51.110;7.020;2023-05-27T06:11:44;11.70;99.90
8220;DHT22;4151;51.110;7.020;2023-05-27T06:14:10;11.60;99.90
8220;DHT22;4151;51.110;7.020;2023-05-27T06:16:36;11.50;99.90
8220;DHT22;4151;51.110;7.020;2023-05-27T06:19:02;11.50;99.90
8220;DHT22;4151;51.110;7.020;2023-05-27T06:21:28;11.50;99.90
8220;DHT22;4151;51.110;7.020;2023-05-27T06:23:55;11.60;99.90
8220;DHT22;4151;51.110;7.020;2023-05-27T06:26:21;11.70;99.90
8220;DHT22;4151;51.110;7.020;2023-05-27T06:28:46;11.80;99.90
8220;DHT22;4151;51.110;7.020;2023-05-27T06:31:12;11.90;99.90
8220;DHT22;4151;51.110;7.020;2023-05-27T06:33:37;12.00;99.90
8220;DHT22;4151;51.110;7.020;2023-05-27T06:36:03;12.20;99.90
8220;DHT22;4151;51.110;7.020;2023-05-27T06:38:28;12.40;99.90
8220;DHT22;4151;51.110;7.020;2023-05-27T06:40:54;12.60;99.90
8220;DHT22;4151;51.110;7.020;2023-05-27T06:43:19;12.70;99.90
8220;DHT22;4151;51.110;7.020;2023-05-27T06:45:45;12.80;99.90
8220;DHT22;4151;51.110;7.020;2023-05-27T06:48:11;13.00;99.90
8220;DHT22;4151;51.110;7.020;2023-05-27T06:50:36;13.20;99.90
8220;DHT22;4151;51.110;7.020;2023-05-27T06:53:02;13.30;99.90
8220;DHT22;4151;51.110;7.020;2023-05-27T06:55:27;13.40;99.90
8220;DHT22;4151;51.110;7.020;2023-05-27T06:57:53;13.50;99.90
8220;DHT22;4151;51.110;7.020;2023-05-27T07:00:18;13.60;99.90
8220;DHT22;4151;51.110;7.020;2023-05-27T07:02:44;13.70;99.90
8220;DHT22;4151;51.110;7.020;2023-05-27T07:05:10;13.80;99.90
8220;DHT22;4151;51.110;7.020;2023-05-27T07:07:35;14.00;99.90
8220;DHT22;4151;51.110;7.020;2023-05-27T07:10:01;14.10;99.90
8220;DHT22;4151;51.110;7.020;2023-05-27T07:12:27;14.20;99.90
8220;DHT22;4151;51.110;7.020;2023-05-27T07:14:52;14.20;99.90
8220;DHT22;4151;51.110;7.020;2023-05-27T07:17:18;14.30;99.90
8220;DHT22;4151;51.110;7.020;2023-05-27T07:19:43;14.40;99.90
8220;DHT22;4151;51.110;7.020;2023-05-27T07:22:09;14.60;99.90
8220;DHT22;4151;51.110;7.020;2023-05-27T07:24:34;14.70;99.90
8220;DHT22;4151;51.110;7.020;2023-05-27T07:27:00;14.90;99.90
8220;DHT22;4151;51.110;7.020;2023-05-27T07:29:26;15.10;99.90
8220;DHT22;4151;51.110;7.020;2023-05-27T07:31:52;15.20;99.90
8220;DHT22;4151;51.110;7.020;2023-05-27T07:34:17;15.30;99.90
8220;DHT22;4151;51.110;7.020;2023-05-27T07:36:43;15.40;99.90
8220;DHT22;4151;51.110;7.020;2023-05-27T07:39:08;15.50;99.90
8220;DHT22;4151;51.110;7.020;2023-05-27T07:41:34;15.60;99.90
8220;DHT22;4151;51.110;7.020;2023-05-27T07:43:59;15.70;99.90
8220;DHT22;4151;51.110;7.020;2023-05-27T07:46:25;15.80;99.90
8220;DHT22;4151;51.110;7.020;2023-05-27T07:48:51;15.90;99.90
8220;DHT22;4151;51.110;7.020;2023-05-27T07:51:16;15.90;99.90
8220;DHT22;4151;51.110;7.020;2023-05-27T07:53:42;16.00;99.90
8220;DHT22;4151;51.110;7.020;2023-05-27T07:56:07;16.10;99.90
8220;DHT22;4151;51.110;7.020;2023-05-27T07:58:33;16.30;99.90
8220;DHT22;4151;51.110;7.020;2023-05-27T08:00:59;16.40;99.90
8220;DHT22;4151;51.110;7.020;2023-05-27T08:03:24;16.40;99.90
8220;DHT22;4151;51.110;7.020;2023-05-27T08:05:50;16.40;99.90
8220;DHT22;4151;51.110;7.020;2023-05-27T08:08:16;16.60;99.90
8220;DHT22;4151;51.110;7.020;2023-05-27T08:10:41;16.70;99.90
8220;DHT22;4151;51.110;7.020;2023-05-27T08:13:07;16.70;99.90
8220;DHT22;4151;51.110;7.020;2023-05-27T08:15:32;16.70;99.90
8220;DHT22;4151;51.110;7.020;2023-05-27T08:17:58;16.70;99.90
8220;DHT22;4151;51.110;7.020;2023-05-27T08:20:24;16.70;99.90
8220;DHT22;4151;51.110;7.020;2023-05-27T08:22:50;16.80;99.90
8220;DHT22;4151;51.110;7.020;2023-05-27T08:25:16;16.90;99.90
8220;DHT22;4151;51.110;7.020;2023-05-27T08:27:47;17.00;99.90
8220;DHT22;4151;51.110;7.020;2023-05-27T08:30:13;17.20;99.90
8220;DHT22;4151;51.110;7.020;2023-05-27T08:32:40;17.30;99.90
8220;DHT22;4151;51.110;7.020;2023-05-27T08:35:07;17.40;99.90
8220;DHT22;4151;51.110;7.020;2023-05-27T08:37:32;17.70;99.90
8220;DHT22;4151;51.110;7.020;2023-05-27T08:39:58;18.00;99.90
8220;DHT22;4151;51.110;7.020;2023-05-27T08:42:25;18.10;99.90
8220;DHT22;4151;51.110;7.020;2023-05-27T08:44:51;18.30;99.90
8220;DHT22;4151;51.110;7.020;2023-05-27T08:47:16;18.50;99.90
8220;DHT22;4151;51.110;7.020;2023-05-27T08:49:42;18.70;99.90
8220;DHT22;4151;51.110;7.020;2023-05-27T08:52:09;18.70;99.90
8220;DHT22;4151;51.110;7.020;2023-05-27T08:54:36;18.80;99.90
8220;DHT22;4151;51.110;7.020;2023-05-27T08:57:06;18.90;99.90
8220;DHT22;4151;51.110;7.020;2023-05-27T08:59:35;19.10;99.90
8220;DHT22;4151;51.110;7.020;2023-05-27T09:02:02;19.50;99.90
8220;DHT22;4151;51.110;7.020;2023-05-27T09:04:28;20.10;99.90
8220;DHT22;4151;51.110;7.020;2023-05-27T09:06:54;20.50;99.90
8220;DHT22;4151;51.110;7.020;2023-05-27T09:09:19;20.80;99.90
8220;DHT22;4151;51.110;7.020;2023-05-27T09:11:45;21.10;99.90
8220;DHT22;4151;51.110;7.020;2023-05-27T09:14:20;21.40;99.90
8220;DHT22;4151;51.110;7.020;2023-05-27T09:16:45;21.70;99.90
8220;DHT22;4151;51.110;7.020;2023-05-27T09:19:17;21.90;99.90
8220;DHT22;4151;51.110;7.020;2023-05-27T09:21:43;22.20;99.90
8220;DHT22;4151;51.110;7.020;2023-05-27T09:24:09;22.40;99.90
8220;DHT22;4151;51.110;7.020;2023-05-27T09:26:35;22.80;99.90
8220;DHT22;4151;51.110;7.020;2023-05-27T09:29:06;22.90;99.90
8220;DHT22;4151;51.110;7.020;2023-05-27T09:31:42;23.00;99.90
8220;DHT22;4151;51.110;7.020;2023-05-27T09:34:15;23.20;99.90
8220;DHT22;4151;51.110;7.020;2023-05-27T09:36:48;23.00;99.90
8220;DHT22;4151;51.110;7.020;2023-05-27T09:39:16;23.10;99.90
8220;DHT22;4151;51.110;7.020;2023-05-27T09:41:42;23.60;99.90
8220;DHT22;4151;51.110;7.020;2023-05-27T09:44:08;24.20;99.90
8220;DHT22;4151;51.110;7.020;2023-05-27T09:46:35;24.60;98.30
8220;DHT22;4151;51.110;7.020;2023-05-27T09:49:01;24.30;97.20
8220;DHT22;4151;51.110;7.020;2023-05-27T09:51:31;23.80;99.50
8220;DHT22;4151;51.110;7.020;2023-05-27T09:53:58;24.00;98.50
8220;DHT22;4151;51.110;7.020;2023-05-27T09:56:28;24.50;96.80
8220;DHT22;4151;51.110;7.020;2023-05-27T09:58:57;24.80;95.00
8220;DHT22;4151;51.110;7.020;2023-05-27T10:01:27;25.10;94.20
8220;DHT22;4151;51.110;7.020;2023-05-27T10:03:57;25.50;92.20
8220;DHT22;4151;51.110;7.020;2023-05-27T10:06:23;25.30;94.80
8220;DHT22;4151;51.110;7.020;2023-05-27T10:08:50;25.70;93.20
8220;DHT22;4151;51.110;7.020;2023-05-27T10:11:21;25.30;91.10
8220;DHT22;4151;51.110;7.020;2023-05-27T10:13:46;24.80;92.10
8220;DHT22;4151;51.110;7.020;2023-05-27T10:16:22;24.80;92.20
8220;DHT22;4151;51.110;7.020;2023-05-27T10:18:55;24.70;92.70
8220;DHT22;4151;51.110;7.020;2023-05-27T10:21:23;24.80;94.50
8220;DHT22;4151;51.110;7.020;2023-05-27T10:23:56;25.50;90.60
8220;DHT22;4151;51.110;7.020;2023-05-27T10:26:32;25.50;90.20
8220;DHT22;4151;51.110;7.020;2023-05-27T10:31:34;25.80;88.00
8220;DHT22;4151;51.110;7.020;2023-05-27T10:33:59;26.00;91.60
8220;DHT22;4151;51.110;7.020;2023-05-27T10:36:26;26.50;89.20
8220;DHT22;4151;51.110;7.020;2023-05-27T10:38:58;26.90;84.00
8220;DHT22;4151;51.110;7.020;2023-05-27T10:41:25;27.70;86.40
8220;DHT22;4151;51.110;7.020;2023-05-27T10:43:58;28.60;79.40
8220;DHT22;4151;51.110;7.020;2023-05-27T10:46:24;28.70;78.80
8220;DHT22;4151;51.110;7.020;2023-05-27T10:48:51;28.30;79.70
8220;DHT22;4151;51.110;7.020;2023-05-27T10:51:16;28.30;76.00
8220;DHT22;4151;51.110;7.020;2023-05-27T10:53:42;28.20;76.60
8220;DHT22;4151;51.110;7.020;2023-05-27T10:56:08;28.30;77.40
8220;DHT22;4151;51.110;7.020;2023-05-27T10:58:35;28.40;78.30
8220;DHT22;4151;51.110;7.020;2023-05-27T11:01:10;29.00;76.60
8220;DHT22;4151;51.110;7.020;2023-05-27T11:03:43;29.10;74.00
8220;DHT22;4151;51.110;7.020;2023-05-27T11:06:10;28.90;72.90
8220;DHT22;4151;51.110;7.020;2023-05-27T11:08:36;28.50;73.20
8220;DHT22;4151;51.110;7.020;2023-05-27T11:13:41;28.80;72.90
8220;DHT22;4151;51.110;7.020;2023-05-27T11:16:12;28.40;76.50
8220;DHT22;4151;51.110;7.020;2023-05-27T11:18:45;28.70;74.40
8220;DHT22;4151;51.110;7.020;2023-05-27T11:21:15;28.90;73.60
8220;DHT22;4151;51.110;7.020;2023-05-27T11:23:45;28.70;72.90
8220;DHT22;4151;51.110;7.020;2023-05-27T11:26:18;28.60;71.60
8220;DHT22;4151;51.110;7.020;2023-05-27T11:28:56;28.60;72.10
8220;DHT22;4151;51.110;7.020;2023-05-27T11:31:28;27.90;71.70
8220;DHT22;4151;51.110;7.020;2023-05-27T11:33:54;27.20;73.30
8220;DHT22;4151;51.110;7.020;2023-05-27T11:36:20;27.60;74.40
8220;DHT22;4151;51.110;7.020;2023-05-27T11:39:00;28.40;73.90
8220;DHT22;4151;51.110;7.020;2023-05-27T11:41:28;28.60;71.30
8220;DHT22;4151;51.110;7.020;2023-05-27T11:44:00;29.50;75.10
8220;DHT22;4151;51.110;7.020;2023-05-27T11:46:41;30.10;69.70
8220;DHT22;4151;51.110;7.020;2023-05-27T11:49:09;30.00;68.60
8220;DHT22;4151;51.110;7.020;2023-05-27T11:52:03;30.20;69.90
8220;DHT22;4151;51.110;7.020;2023-05-27T11:54:31;31.00;69.40
8220;DHT22;4151;51.110;7.020;2023-05-27T11:56:57;31.80;67.70
8220;DHT22;4151;51.110;7.020;2023-05-27T11:59:25;31.60;68.30
8220;DHT22;4151;51.110;7.020;2023-05-27T12:01:52;31.00;65.80
8220;DHT22;4151;51.110;7.020;2023-05-27T12:04:19;32.00;63.90
8220;DHT22;4151;51.110;7.020;2023-05-27T12:06:45;32.10;67.10
8220;DHT22;4151;51.110;7.020;2023-05-27T12:09:11;32.30;64.20
8220;DHT22;4151;51.110;7.020;2023-05-27T12:11:38;32.70;62.30
8220;DHT22;4151;51.110;7.020;2023-05-27T12:14:04;33.10;61.20
8220;DHT22;4151;51.110;7.020;2023-05-27T12:16:30;32.50;61.60
8220;DHT22;4151;51.110;7.020;2023-05-27T12:18:57;31.20;61.00
8220;DHT22;4151;51.110;7.020;2023-05-27T12:21:23;31.80;61.30
8220;DHT22;4151;51.110;7.020;2023-05-27T12:23:49;32.70;59.00
8220;DHT22;4151;51.110;7.020;2023-05-27T12:26:15;33.40;60.90
8220;DHT22;4151;51.110;7.020;2023-05-27T12:28:41;33.40;59.50
8220;DHT22;4151;51.110;7.020;2023-05-27T12:31:07;33.70;59.40
8220;DHT22;4151;51.110;7.020;2023-05-27T12:33:33;34.10;58.40
8220;DHT22;4151;51.110;7.020;2023-05-27T12:35:59;33.60;58.80
8220;DHT22;4151;51.110;7.020;2023-05-27T12:38:25;33.50;60.10
8220;DHT22;4151;51.110;7.020;2023-05-27T12:40:51;33.60;58.90
8220;DHT22;4151;51.110;7.020;2023-05-27T12:43:18;34.40;57.80
8220;DHT22;4151;51.110;7.020;2023-05-27T12:45:44;35.40;57.00
8220;DHT22;4151;51.110;7.020;2023-05-27T12:48:11;35.90;55.80
8220;DHT22;4151;51.110;7.020;2023-05-27T12:50:36;35.30;55.30
8220;DHT22;4151;51.110;7.020;2023-05-27T12:53:02;34.70;56.70
8220;DHT22;4151;51.110;7.020;2023-05-27T12:55:28;34.80;55.10
8220;DHT22;4151;51.110;7.020;2023-05-27T12:57:54;35.00;55.50
8220;DHT22;4151;51.110;7.020;2023-05-27T13:00:21;35.70;55.00
8220;DHT22;4151;51.110;7.020;2023-05-27T13:02:47;35.60;54.00
8220;DHT22;4151;51.110;7.020;2023-05-27T13:05:13;36.30;52.90
8220;DHT22;4151;51.110;7.020;2023-05-27T13:07:39;35.10;53.50
8220;DHT22;4151;51.110;7.020;2023-05-27T13:10:10;35.50;53.40
8220;DHT22;4151;51.110;7.020;2023-05-27T13:12:36;36.40;52.10
8220;DHT22;4151;51.110;7.020;2023-05-27T13:15:02;36.30;51.80
8220;DHT22;4151;51.110;7.020;2023-05-27T13:17:31;36.70;51.80
8220;DHT22;4151;51.110;7.020;2023-05-27T13:19:57;36.30;52.30
8220;DHT22;4151;51.110;7.020;2023-05-27T13:22:23;36.30;51.50
8220;DHT22;4151;51.110;7.020;2023-05-27T13:24:49;36.40;51.30
8220;DHT22;4151;51.110;7.020;2023-05-27T13:27:14;36.10;50.00
8220;DHT22;4151;51.110;7.020;2023-05-27T13:29:40;35.90;49.30
8220;DHT22;4151;51.110;7.020;2023-05-27T13:32:06;36.40;51.30
8220;DHT22;4151;51.110;7.020;2023-05-27T13:34:32;36.30;51.20
8220;DHT22;4151;51.110;7.020;2023-05-27T13:36:57;37.30;50.90
8220;DHT22;4151;51.110;7.020;2023-05-27T13:39:23;36.80;50.90
8220;DHT22;4151;51.110;7.020;2023-05-27T13:41:49;37.40;52.00
8220;DHT22;4151;51.110;7.020;2023-05-27T13:44:14;37.10;51.40
8220;DHT22;4151;51.110;7.020;2023-05-27T13:46:40;36.70;51.60
8220;DHT22;4151;51.110;7.020;2023-05-27T13:49:06;36.40;53.80
8220;DHT22;4151;51.110;7.020;2023-05-27T13:51:32;36.40;53.10
8220;DHT22;4151;51.110;7.020;2023-05-27T13:53:57;37.30;53.90
8220;DHT22;4151;51.110;7.020;2023-05-27T13:56:23;37.80;54.30
8220;DHT22;4151;51.110;7.020;2023-05-27T13:58:49;37.70;54.30
8220;DHT22;4151;51.110;7.020;2023-05-27T14:01:15;37.40;53.70
8220;DHT22;4151;51.110;7.020;2023-05-27T14:03:41;37.60;53.50
8220;DHT22;4151;51.110;7.020;2023-05-27T14:06:06;36.90;55.90
8220;DHT22;4151;51.110;7.020;2023-05-27T14:08:33;36.00;55.70
8220;DHT22;4151;51.110;7.020;2023-05-27T14:10:58;37.70;55.40
8220;DHT22;4151;51.110;7.020;2023-05-27T14:13:24;39.00;54.20
8220;DHT22;4151;51.110;7.020;2023-05-27T14:15:50;38.50;54.50
8220;DHT22;4151;51.110;7.020;2023-05-27T14:18:16;38.80;53.60
8220;DHT22;4151;51.110;7.020;2023-05-27T14:20:42;39.00;54.10
8220;DHT22;4151;51.110;7.020;2023-05-27T14:23:08;39.30;54.30
8220;DHT22;4151;51.110;7.020;2023-05-27T14:25:36;37.70;55.30
8220;DHT22;4151;51.110;7.020;2023-05-27T14:28:02;37.70;56.10
8220;DHT22;4151;51.110;7.020;2023-05-27T14:30:29;37.50;56.60
8220;DHT22;4151;51.110;7.020;2023-05-27T14:32:56;38.30;54.90
8220;DHT22;4151;51.110;7.020;2023-05-27T14:35:27;38.40;54.00
8220;DHT22;4151;51.110;7.020;2023-05-27T14:37:52;39.10;55.60
8220;DHT22;4151;51.110;7.020;2023-05-27T14:40:18;38.90;54.50
8220;DHT22;4151;51.110;7.020;2023-05-27T14:42:44;39.30;54.30
8220;DHT22;4151;51.110;7.020;2023-05-27T14:45:09;40.00;53.60
8220;DHT22;4151;51.110;7.020;2023-05-27T14:47:35;39.80;54.20
8220;DHT22;4151;51.110;7.020;2023-05-27T14:50:01;39.50;52.90
8220;DHT22;4151;51.110;7.020;2023-05-27T14:52:27;38.80;54.30
8220;DHT22;4151;51.110;7.020;2023-05-27T14:54:53;38.30;54.20
8220;DHT22;4151;51.110;7.020;2023-05-27T14:57:18;38.10;53.50
8220;DHT22;4151;51.110;7.020;2023-05-27T14:59:44;38.50;53.90
8220;DHT22;4151;51.110;7.020;2023-05-27T15:02:09;38.30;53.40
8220;DHT22;4151;51.110;7.020;2023-05-27T15:04:35;39.10;52.60
8220;DHT22;4151;51.110;7.020;2023-05-27T15:07:01;39.10;52.90
8220;DHT22;4151;51.110;7.020;2023-05-27T15:09:26;39.50;52.10
8220;DHT22;4151;51.110;7.020;2023-05-27T15:11:52;38.70;52.60
8220;DHT22;4151;51.110;7.020;2023-05-27T15:14:17;38.70;52.20
8220;DHT22;4151;51.110;7.020;2023-05-27T15:16:43;39.40;52.50
8220;DHT22;4151;51.110;7.020;2023-05-27T15:19:09;39.70;52.10
8220;DHT22;4151;51.110;7.020;2023-05-27T15:21:35;40.40;51.40
8220;DHT22;4151;51.110;7.020;2023-05-27T15:24:01;41.40;51.00
8220;DHT22;4151;51.110;7.020;2023-05-27T15:26:26;42.20;50.00
8220;DHT22;4151;51.110;7.020;2023-05-27T15:28:52;41.80;50.40
8220;DHT22;4151;51.110;7.020;2023-05-27T15:31:18;40.10;50.20
8220;DHT22;4151;51.110;7.020;2023-05-27T15:33:45;39.90;50.90
8220;DHT22;4151;51.110;7.020;2023-05-27T15:36:11;40.20;50.40
8220;DHT22;4151;51.110;7.020;2023-05-27T15:38:37;39.80;51.40
8220;DHT22;4151;51.110;7.020;2023-05-27T15:41:02;40.40;51.10
8220;DHT22;4151;51.110;7.020;2023-05-27T15:43:28;41.10;50.90
8220;DHT22;4151;51.110;7.020;2023-05-27T15:45:53;40.60;51.40
8220;DHT22;4151;51.110;7.020;2023-05-27T15:48:19;40.90;50.60
8220;DHT22;4151;51.110;7.020;2023-05-27T15:50:45;39.60;52.30
8220;DHT22;4151;51.110;7.020;2023-05-27T15:53:12;40.20;50.90
8220;DHT22;4151;51.110;7.020;2023-05-27T15:55:37;39.70;51.40
8220;DHT22;4151;51.110;7.020;2023-05-27T15:58:03;39.10;52.10
8220;DHT22;4151;51.110;7.020;2023-05-27T16:00:29;38.70;51.60
8220;DHT22;4151;51.110;7.020;2023-05-27T16:02:54;38.40;52.10
8220;DHT22;4151;51.110;7.020;2023-05-27T16:05:20;37.60;53.20
8220;DHT22;4151;51.110;7.020;2023-05-27T16:07:46;37.30;54.00
8220;DHT22;4151;51.110;7.020;2023-05-27T16:10:11;38.00;54.10
8220;DHT22;4151;51.110;7.020;2023-05-27T16:12:37;39.10;53.30
8220;DHT22;4151;51.110;7.020;2023-05-27T16:15:03;39.10;53.20
8220;DHT22;4151;51.110;7.020;2023-05-27T16:17:29;39.50;53.10
8220;DHT22;4151;51.110;7.020;2023-05-27T16:19:55;39.00;52.90
8220;DHT22;4151;51.110;7.020;2023-05-27T16:22:25;38.90;54.00
8220;DHT22;4151;51.110;7.020;2023-05-27T16:24:50;38.80;53.90
8220;DHT22;4151;51.110;7.020;2023-05-27T16:27:16;39.70;53.10
8220;DHT22;4151;51.110;7.020;2023-05-27T16:29:42;39.30;52.50
8220;DHT22;4151;51.110;7.020;2023-05-27T16:32:08;38.50;54.00
8220;DHT22;4151;51.110;7.020;2023-05-27T16:45:22;37.50;54.30
8220;DHT22;4151;51.110;7.020;2023-05-27T16:47:48;36.40;55.30
8220;DHT22;4151;51.110;7.020;2023-05-27T16:50:14;35.90;56.30
8220;DHT22;4151;51.110;7.020;2023-05-27T16:52:39;36.20;55.60
8220;DHT22;4151;51.110;7.020;2023-05-27T16:55:06;36.80;55.40
8220;DHT22;4151;51.110;7.020;2023-05-27T16:57:35;37.30;55.00
8220;DHT22;4151;51.110;7.020;2023-05-27T17:00:01;36.50;55.10
8220;DHT22;4151;51.110;7.020;2023-05-27T17:02:28;36.30;55.60
8220;DHT22;4151;51.110;7.020;2023-05-27T17:04:53;36.60;55.30
8220;DHT22;4151;51.110;7.020;2023-05-27T17:07:20;37.20;55.00
8220;DHT22;4151;51.110;7.020;2023-05-27T17:09:45;37.40;54.70
8220;DHT22;4151;51.110;7.020;2023-05-27T17:12:12;36.50;55.00
8220;DHT22;4151;51.110;7.020;2023-05-27T17:14:37;36.90;55.30
8220;DHT22;4151;51.110;7.020;2023-05-27T17:17:03;36.50;55.20
8220;DHT22;4151;51.110;7.020;2023-05-27T17:19:28;36.30;55.40
8220;DHT22;4151;51.110;7.020;2023-05-27T17:21:54;36.90;55.30
8220;DHT22;4151;51.110;7.020;2023-05-27T17:24:20;36.00;55.60
8220;DHT22;4151;51.110;7.020;2023-05-27T17:26:46;34.60;56.90
8220;DHT22;4151;51.110;7.020;2023-05-27T17:29:12;34.80;56.80
8220;DHT22;4151;51.110;7.020;2023-05-27T17:31:38;34.20;57.00
8220;DHT22;4151;51.110;7.020;2023-05-27T17:34:04;33.90;57.40
8220;DHT22;4151;51.110;7.020;2023-05-27T17:36:30;33.80;57.90
8220;DHT22;4151;51.110;7.020;2023-05-27T17:38:55;33.50;58.10
8220;DHT22;4151;51.110;7.020;2023-05-27T17:41:21;33.80;58.00
8220;DHT22;4151;51.110;7.020;2023-05-27T17:43:46;33.50;57.70
8220;DHT22;4151;51.110;7.020;2023-05-27T17:46:12;32.40;58.90
8220;DHT22;4151;51.110;7.020;2023-05-27T17:48:38;31.80;59.90
8220;DHT22;4151;51.110;7.020;2023-05-27T17:51:04;32.00;59.40
8220;DHT22;4151;51.110;7.020;2023-05-27T17:53:30;31.30;60.00
8220;DHT22;4151;51.110;7.020;2023-05-27T17:55:57;30.80;60.70
8220;DHT22;4151;51.110;7.020;2023-05-27T17:58:23;30.30;61.90
8220;DHT22;4151;51.110;7.020;2023-05-27T18:00:48;29.10;63.70
8220;DHT22;4151;51.110;7.020;2023-05-27T18:03:14;27.80;66.10
8220;DHT22;4151;51.110;7.020;2023-05-27T18:05:39;26.90;68.30
8220;DHT22;4151;51.110;7.020;2023-05-27T18:08:05;26.10;70.60
8220;DHT22;4151;51.110;7.020;2023-05-27T18:10:31;25.60;71.10
8220;DHT22;4151;51.110;7.020;2023-05-27T18:12:56;25.10;73.00
8220;DHT22;4151;51.110;7.020;2023-05-27T18:15:22;24.80;74.20
8220;DHT22;4151;51.110;7.020;2023-05-27T18:17:47;24.50;75.00
8220;DHT22;4151;51.110;7.020;2023-05-27T18:20:13;24.00;76.90
8220;DHT22;4151;51.110;7.020;2023-05-27T18:22:39;23.80;78.30
8220;DHT22;4151;51.110;7.020;2023-05-27T18:25:05;23.40;79.20
8220;DHT22;4151;51.110;7.020;2023-05-27T18:27:32;23.20;79.70
8220;DHT22;4151;51.110;7.020;2023-05-27T18:29:57;23.00;81.50
8220;DHT22;4151;51.110;7.020;2023-05-27T18:32:24;22.90;82.00
8220;DHT22;4151;51.110;7.020;2023-05-27T18:34:49;22.70;82.90
8220;DHT22;4151;51.110;7.020;2023-05-27T18:37:15;22.60;83.70
8220;DHT22;4151;51.110;7.020;2023-05-27T18:39:40;22.30;83.90
8220;DHT22;4151;51.110;7.020;2023-05-27T18:42:06;22.10;84.90
8220;DHT22;4151;51.110;7.020;2023-05-27T18:44:32;21.90;86.50
8220;DHT22;4151;51.110;7.020;2023-05-27T18:46:58;21.70;87.20
8220;DHT22;4151;51.110;7.020;2023-05-27T18:49:24;21.60;88.30
8220;DHT22;4151;51.110;7.020;2023-05-27T18:51:50;21.40;89.70
8220;DHT22;4151;51.110;7.020;2023-05-27T18:54:17;21.30;90.40
8220;DHT22;4151;51.110;7.020;2023-05-27T18:56:43;21.10;90.90
8220;DHT22;4151;51.110;7.020;2023-05-27T18:59:08;21.00;91.80
8220;DHT22;4151;51.110;7.020;2023-05-27T19:01:34;20.90;92.60
8220;DHT22;4151;51.110;7.020;2023-05-27T19:04:02;20.80;92.90
8220;DHT22;4151;51.110;7.020;2023-05-27T19:06:28;20.70;93.80
8220;DHT22;4151;51.110;7.020;2023-05-27T19:08:54;20.60;94.40
8220;DHT22;4151;51.110;7.020;2023-05-27T19:11:20;20.50;95.30
8220;DHT22;4151;51.110;7.020;2023-05-27T19:13:45;20.30;95.90
8220;DHT22;4151;51.110;7.020;2023-05-27T19:16:11;20.30;96.70
8220;DHT22;4151;51.110;7.020;2023-05-27T19:18:37;20.20;97.60
8220;DHT22;4151;51.110;7.020;2023-05-27T19:21:02;20.10;98.00
8220;DHT22;4151;51.110;7.020;2023-05-27T19:23:28;20.10;99.10
8220;DHT22;4151;51.110;7.020;2023-05-27T19:25:53;20.00;99.40
8220;DHT22;4151;51.110;7.020;2023-05-27T19:28:19;19.90;99.90
8220;DHT22;4151;51.110;7.020;2023-05-27T19:30:45;19.80;99.90
8220;DHT22;4151;51.110;7.020;2023-05-27T19:33:10;19.70;99.90
8220;DHT22;4151;51.110;7.020;2023-05-27T19:35:39;19.60;99.90
8220;DHT22;4151;51.110;7.020;2023-05-27T19:38:05;19.40;99.90
8220;DHT22;4151;51.110;7.020;2023-05-27T19:40:32;19.40;99.90
8220;DHT22;4151;51.110;7.020;2023-05-27T19:42:57;19.30;99.90
8220;DHT22;4151;51.110;7.020;2023-05-27T19:45:23;19.30;99.90
8220;DHT22;4151;51.110;7.020;2023-05-27T19:47:48;19.20;99.90
8220;DHT22;4151;51.110;7.020;2023-05-27T19:50:14;19.10;99.90
8220;DHT22;4151;51.110;7.020;2023-05-27T19:52:39;19.00;99.90
8220;DHT22;4151;51.110;7.020;2023-05-27T19:55:05;18.90;99.90
8220;DHT22;4151;51.110;7.020;2023-05-27T19:57:31;18.90;99.90
8220;DHT22;4151;51.110;7.020;2023-05-27T19:59:57;18.80;99.90
8220;DHT22;4151;51.110;7.020;2023-05-27T20:02:23;18.70;99.90